Time;durP1;ratioP1;P1;durP2;ratioP2;P2;SDS_P1;SDS_P2;PMS_P1;PMS_P2;Temp;Humidity;BMP_temperature;BMP_pressure;BME280_temperature;BME280_humidity;BME280_pressure;Samples;Min_cycle;Max_cycle;Signal;HPM_P1;HPM_P2
2023/06/19 00:00:22;;;;;;;9.10;7.50;;;19.70;99.90;;;;;;5090198;28;20533;-52
2023/06/19 00:02:49;;;;;;;6.13;5.30;;;19.80;99.90;;;;;;5089648;28;20483;-53
2023/06/19 00:05:16;;;;;;;6.63;5.57;;;19.70;99.90;;;;;;5090372;28;20554;-53
2023/06/19 00:07:44;;;;;;;7.87;6.60;;;19.70;99.90;;;;;;5090297;28;20440;-53
2023/06/19 00:10:11;;;;;;;7.83;7.03;;;19.60;99.90;;;;;;5090485;28;20528;-52
2023/06/19 00:12:38;;;;;;;8.20;6.47;;;19.60;99.90;;;;;;5090319;28;20537;-54
2023/06/19 00:15:07;;;;;;;6.57;5.90;;;19.70;99.90;;;;;;5089884;28;20523;-52
2023/06/19 00:17:37;;;;;;;7.00;6.20;;;19.70;99.90;;;;;;5090239;28;20530;-52
2023/06/19 00:20:05;;;;;;;6.00;5.40;;;19.80;99.90;;;;;;5092670;28;20492;-53
2023/06/19 00:22:32;;;;;;;7.60;6.27;;;19.90;99.90;;;;;;5092885;28;20476;-54
2023/06/19 00:25:00;;;;;;;6.80;5.60;;;19.90;99.90;;;;;;5092439;28;20806;-53
2023/06/19 00:27:27;;;;;;;7.30;5.70;;;19.70;99.90;;;;;;5090917;28;20502;-53
2023/06/19 00:29:54;;;;;;;5.57;4.43;;;19.70;99.90;;;;;;5092467;28;20570;-53
2023/06/19 00:32:21;;;;;;;9.80;6.20;;;19.70;99.90;;;;;;5092882;28;20447;-54
2023/06/19 00:34:48;;;;;;;6.80;6.20;;;19.50;99.90;;;;;;5093595;28;20469;-53
2023/06/19 00:37:15;;;;;;;8.30;7.50;;;19.40;99.90;;;;;;5093451;28;20904;-53
2023/06/19 00:39:42;;;;;;;8.80;7.37;;;19.30;99.90;;;;;;5093503;28;20455;-53
2023/06/19 00:42:10;;;;;;;6.70;6.00;;;19.30;99.90;;;;;;5093769;28;20527;-53
2023/06/19 00:44:37;;;;;;;6.63;5.40;;;19.30;99.90;;;;;;5094079;28;20439;-52
2023/06/19 00:47:05;;;;;;;7.60;5.87;;;19.30;99.90;;;;;;5093529;28;20862;-53
2023/06/19 00:49:33;;;;;;;7.63;6.80;;;19.30;99.90;;;;;;5093207;28;20509;-52
2023/06/19 00:52:00;;;;;;;7.27;6.53;;;19.30;99.90;;;;;;5093480;28;20481;-53
2023/06/19 00:54:27;;;;;;;7.40;6.70;;;19.30;99.90;;;;;;5093719;28;20531;-52
2023/06/19 00:56:54;;;;;;;6.47;5.77;;;19.40;99.90;;;;;;5092776;28;20527;-55
2023/06/19 00:59:23;;;;;;;6.73;5.50;;;19.30;99.90;;;;;;5093147;28;20841;-52
2023/06/19 01:01:50;;;;;;;8.60;7.00;;;19.30;99.90;;;;;;5092121;28;20456;-53
2023/06/19 01:04:17;;;;;;;8.87;7.97;;;19.20;99.90;;;;;;5093457;28;20545;-53
2023/06/19 01:06:52;;;;;;;8.60;7.63;;;19.20;99.90;;;;;;5093213;28;20431;-53
2023/06/19 01:09:20;;;;;;;8.50;6.67;;;19.20;99.90;;;;;;5093263;28;20451;-52
2023/06/19 01:11:56;;;;;;;8.53;5.80;;;19.20;99.90;;;;;;5093109;28;20786;-53
2023/06/19 01:14:29;;;;;;;6.57;5.70;;;19.30;99.90;;;;;;5093185;28;20850;-52
2023/06/19 01:16:56;;;;;;;6.43;5.90;;;19.40;99.90;;;;;;5093027;28;20521;-52
2023/06/19 01:19:25;;;;;;;6.97;6.27;;;19.50;99.90;;;;;;5092899;28;20900;-53
2023/06/19 01:21:52;;;;;;;5.70;4.50;;;19.50;99.90;;;;;;5092985;28;20438;-52
2023/06/19 01:24:21;;;;;;;6.63;6.03;;;19.50;99.90;;;;;;5092968;28;20562;-55
2023/06/19 01:26:48;;;;;;;6.83;5.83;;;19.50;99.90;;;;;;5090744;28;20936;-53
2023/06/19 01:29:17;;;;;;;8.03;7.23;;;19.30;99.90;;;;;;5092320;28;20527;-53
2023/06/19 01:31:51;;;;;;;9.20;8.40;;;19.20;99.90;;;;;;5093223;28;20440;-53
2023/06/19 01:34:20;;;;;;;11.20;9.50;;;19.00;99.90;;;;;;5092812;28;20519;-53
2023/06/19 01:36:48;;;;;;;9.83;7.20;;;18.90;99.90;;;;;;5092467;28;20540;-53
2023/06/19 01:39:16;;;;;;;8.70;6.93;;;18.90;99.90;;;;;;5092225;28;20646;-52
2023/06/19 01:41:46;;;;;;;10.37;7.50;;;18.90;99.90;;;;;;5092562;28;20528;-52
2023/06/19 01:44:13;;;;;;;7.30;6.47;;;19.00;99.90;;;;;;5092654;28;21073;-53
2023/06/19 01:46:40;;;;;;;7.73;6.93;;;19.00;99.90;;;;;;5092389;28;20508;-53
2023/06/19 01:49:09;;;;;;;10.10;8.27;;;19.10;99.90;;;;;;5092570;28;20447;-53
2023/06/19 01:51:36;;;;;;;8.03;7.17;;;19.10;99.90;;;;;;5092437;28;20930;-53
2023/06/19 01:54:04;;;;;;;9.70;7.93;;;19.10;99.90;;;;;;5092434;28;20440;-53
2023/06/19 01:56:31;;;;;;;6.57;5.83;;;19.00;99.90;;;;;;5091872;28;20451;-54
2023/06/19 01:58:59;;;;;;;6.57;5.87;;;19.00;99.90;;;;;;5092222;28;20862;-52
2023/06/19 02:01:26;;;;;;;6.13;5.53;;;19.10;99.90;;;;;;5090225;28;20468;-53
2023/06/19 02:03:53;;;;;;;7.30;6.47;;;19.20;99.90;;;;;;5090498;28;20558;-54
2023/06/19 02:06:21;;;;;;;7.40;6.33;;;19.20;99.90;;;;;;5092101;28;20529;-53
2023/06/19 02:08:48;;;;;;;9.30;8.40;;;19.20;99.90;;;;;;5092104;28;20847;-53
2023/06/19 02:11:15;;;;;;;8.80;7.90;;;19.10;99.90;;;;;;5091915;28;21020;-53
2023/06/19 02:13:42;;;;;;;9.77;8.87;;;18.90;99.90;;;;;;5091893;28;20483;-53
2023/06/19 02:16:10;;;;;;;7.43;6.60;;;18.70;99.90;;;;;;5091634;28;20539;-53
2023/06/19 02:18:37;;;;;;;9.50;7.03;;;18.80;99.90;;;;;;5091693;28;20894;-53
2023/06/19 02:21:04;;;;;;;7.47;6.73;;;18.90;99.90;;;;;;5091847;28;20545;-53
2023/06/19 02:23:31;;;;;;;8.37;6.10;;;19.00;99.90;;;;;;5092168;28;20913;-53
2023/06/19 02:25:58;;;;;;;7.80;7.00;;;19.10;99.90;;;;;;5089480;28;20490;-55
2023/06/19 02:28:25;;;;;;;7.13;6.33;;;19.20;99.90;;;;;;5091582;28;20476;-53
2023/06/19 02:30:53;;;;;;;7.23;6.40;;;19.20;99.90;;;;;;5091466;28;20469;-53
2023/06/19 02:33:21;;;;;;;6.53;5.90;;;19.20;99.90;;;;;;5091708;28;20436;-52
2023/06/19 02:35:48;;;;;;;8.47;6.87;;;19.10;99.90;;;;;;5091254;28;20444;-53
2023/06/19 02:38:15;;;;;;;7.80;6.70;;;19.00;99.90;;;;;;5091662;28;20443;-53
2023/06/19 02:40:42;;;;;;;7.70;6.90;;;18.90;99.90;;;;;;5091110;28;20494;-52
2023/06/19 02:43:09;;;;;;;7.30;6.60;;;18.80;99.90;;;;;;5091522;28;20539;-55
2023/06/19 02:45:36;;;;;;;8.40;7.60;;;18.80;99.90;;;;;;5091370;28;20509;-54
2023/06/19 02:48:03;;;;;;;9.37;8.37;;;18.90;99.90;;;;;;5091636;28;20534;-52
2023/06/19 02:50:31;;;;;;;7.90;6.70;;;18.80;99.90;;;;;;5091109;28;20461;-53
2023/06/19 02:52:58;;;;;;;7.33;6.43;;;18.80;99.90;;;;;;5091098;28;21029;-53
2023/06/19 02:55:25;;;;;;;8.30;6.60;;;18.90;99.90;;;;;;5091058;28;20542;-54
2023/06/19 02:57:52;;;;;;;6.37;5.70;;;19.00;99.90;;;;;;5091115;28;20448;-53
2023/06/19 03:00:19;;;;;;;7.17;6.47;;;19.10;99.90;;;;;;5091086;28;20499;-54
2023/06/19 03:02:48;;;;;;;8.20;6.50;;;19.00;99.90;;;;;;5088228;28;20482;-53
2023/06/19 03:05:15;;;;;;;6.60;5.97;;;19.00;99.90;;;;;;5090840;28;20483;-53
2023/06/19 03:07:44;;;;;;;9.13;6.73;;;19.00;99.90;;;;;;5090776;28;20530;-53
2023/06/19 03:10:11;;;;;;;7.33;6.50;;;19.00;99.90;;;;;;5090901;28;20459;-53
2023/06/19 03:12:38;;;;;;;8.87;7.97;;;18.90;99.90;;;;;;5091375;28;20447;-55
2023/06/19 03:15:06;;;;;;;7.40;6.10;;;18.80;99.90;;;;;;5090761;28;20474;-53
2023/06/19 03:17:33;;;;;;;7.77;6.33;;;18.70;99.90;;;;;;5090805;28;20493;-53
2023/06/19 03:20:00;;;;;;;9.23;6.70;;;18.70;99.90;;;;;;5090973;28;20458;-53
2023/06/19 03:22:27;;;;;;;7.67;6.23;;;18.70;99.90;;;;;;5090677;28;20526;-53
2023/06/19 03:24:55;;;;;;;6.73;6.00;;;18.80;99.90;;;;;;5090988;28;20556;-54
2023/06/19 03:27:22;;;;;;;8.20;7.40;;;18.90;99.90;;;;;;5088932;28;20795;-53
2023/06/19 03:29:49;;;;;;;8.73;6.50;;;18.90;99.90;;;;;;5090302;28;20884;-55
2023/06/19 03:32:16;;;;;;;10.53;8.37;;;19.00;99.90;;;;;;5091329;28;20443;-53
2023/06/19 03:34:43;;;;;;;7.10;5.83;;;18.90;99.90;;;;;;5090874;28;20443;-54
2023/06/19 03:37:10;;;;;;;7.47;6.67;;;18.80;99.90;;;;;;5090955;28;20442;-53
2023/06/19 03:39:37;;;;;;;9.43;6.50;;;18.90;99.90;;;;;;5090597;28;20499;-53
2023/06/19 03:42:06;;;;;;;6.47;5.80;;;18.90;99.90;;;;;;5090629;28;20533;-54
2023/06/19 03:44:33;;;;;;;7.97;6.83;;;18.90;99.90;;;;;;5090590;28;21018;-53
2023/06/19 03:47:00;;;;;;;6.80;5.70;;;18.90;99.90;;;;;;5090509;28;20547;-53
2023/06/19 03:49:27;;;;;;;6.77;5.93;;;18.90;99.90;;;;;;5090425;28;20518;-53
2023/06/19 03:51:54;;;;;;;7.77;6.97;;;18.90;99.90;;;;;;5090558;28;20448;-53
2023/06/19 03:54:21;;;;;;;10.73;8.03;;;18.80;99.90;;;;;;5094743;28;20441;-52
2023/06/19 03:56:48;;;;;;;10.13;9.00;;;18.80;99.90;;;;;;5094268;28;20541;-55
2023/06/19 03:59:16;;;;;;;9.50;8.53;;;18.70;99.90;;;;;;5094421;28;20844;-53
2023/06/19 04:01:43;;;;;;;9.80;8.80;;;18.60;99.90;;;;;;5092970;28;20467;-55
2023/06/19 04:04:10;;;;;;;9.20;8.33;;;18.50;99.90;;;;;;5094820;28;20467;-52
2023/06/19 04:06:37;;;;;;;6.43;5.50;;;18.60;99.90;;;;;;5094138;28;20854;-53
2023/06/19 04:09:04;;;;;;;8.83;7.93;;;18.60;99.90;;;;;;5094011;28;20492;-53
2023/06/19 04:11:31;;;;;;;6.83;6.10;;;18.70;99.90;;;;;;5094308;28;20463;-53
2023/06/19 04:13:58;;;;;;;8.23;6.63;;;18.70;99.90;;;;;;5094728;28;20550;-53
2023/06/19 04:16:26;;;;;;;8.50;6.93;;;18.70;99.90;;;;;;5094023;28;20526;-54
2023/06/19 04:18:53;;;;;;;7.63;6.73;;;18.80;99.90;;;;;;5093992;28;20468;-54
2023/06/19 04:21:20;;;;;;;8.20;6.63;;;18.90;99.90;;;;;;5094108;28;20464;-53
2023/06/19 04:23:47;;;;;;;8.80;6.80;;;18.90;99.90;;;;;;5094647;28;20511;-52
2023/06/19 04:26:14;;;;;;;6.73;6.13;;;18.90;99.90;;;;;;5092242;28;20499;-53
2023/06/19 04:28:41;;;;;;;7.33;6.40;;;19.00;99.90;;;;;;5093974;28;20474;-54
2023/06/19 04:31:08;;;;;;;8.77;7.70;;;19.00;99.90;;;;;;5093723;28;20558;-53
2023/06/19 04:33:36;;;;;;;8.00;7.00;;;19.00;99.90;;;;;;5094049;28;20484;-52
2023/06/19 04:36:04;;;;;;;8.43;7.50;;;18.90;99.90;;;;;;5093731;28;20518;-53
2023/06/19 04:38:30;;;;;;;7.10;6.33;;;18.90;99.90;;;;;;5093673;28;20471;-53
2023/06/19 04:40:58;;;;;;;7.07;6.37;;;18.90;99.90;;;;;;5093897;28;20506;-52
2023/06/19 04:43:25;;;;;;;8.07;6.37;;;18.90;99.90;;;;;;5094039;28;20811;-53
2023/06/19 04:45:52;;;;;;;7.80;6.97;;;19.00;99.90;;;;;;5093196;28;20439;-53
2023/06/19 04:48:19;;;;;;;8.50;6.80;;;19.00;99.90;;;;;;5093368;28;20979;-53
2023/06/19 04:50:47;;;;;;;6.80;6.13;;;19.00;99.90;;;;;;5092805;28;20555;-53
2023/06/19 04:53:14;;;;;;;7.10;6.07;;;19.10;99.90;;;;;;5089649;28;20933;-53
2023/06/19 04:55:41;;;;;;;7.57;6.07;;;19.10;99.90;;;;;;5071569;28;20528;-55
2023/06/19 04:58:08;;;;;;;8.03;6.57;;;19.10;99.90;;;;;;5072968;28;20487;-53
2023/06/19 05:00:35;;;;;;;7.90;7.10;;;19.10;99.90;;;;;;5073985;28;20464;-53
2023/06/19 05:03:02;;;;;;;7.47;6.67;;;19.10;99.90;;;;;;5081291;28;20489;-53
2023/06/19 05:05:29;;;;;;;7.57;6.60;;;19.00;99.90;;;;;;5092812;28;20558;-53
2023/06/19 05:07:57;;;;;;;7.77;6.97;;;19.00;99.90;;;;;;5091675;28;20535;-53
2023/06/19 05:10:24;;;;;;;6.73;6.03;;;19.00;99.90;;;;;;5081993;28;20464;-54
2023/06/19 05:12:51;;;;;;;9.00;7.57;;;19.10;99.90;;;;;;5084737;28;20469;-52
2023/06/19 05:15:18;;;;;;;7.90;6.97;;;19.10;99.90;;;;;;5092903;28;20973;-53
2023/06/19 05:17:46;;;;;;;7.20;6.30;;;19.10;99.90;;;;;;5086922;28;20865;-53
2023/06/19 05:20:15;;;;;;;7.00;6.30;;;19.20;99.90;;;;;;5081485;28;20459;-53
2023/06/19 05:22:42;;;;;;;8.03;6.30;;;19.30;99.90;;;;;;5081801;28;20457;-53
2023/06/19 05:25:10;;;;;;;7.20;6.07;;;19.30;99.90;;;;;;5080344;28;20507;-53
2023/06/19 05:27:37;;;;;;;6.83;6.13;;;19.40;99.90;;;;;;5082754;28;20997;-53
2023/06/19 05:30:05;;;;;;;7.60;6.80;;;19.40;99.90;;;;;;5081898;28;20555;-54
2023/06/19 05:32:32;;;;;;;8.07;7.00;;;19.40;99.90;;;;;;5090060;28;20447;-54
2023/06/19 05:34:59;;;;;;;8.77;6.70;;;19.50;99.90;;;;;;5092537;28;20513;-52
2023/06/19 05:37:27;;;;;;;7.53;6.57;;;19.60;99.90;;;;;;5092835;28;20473;-53
2023/06/19 05:39:53;;;;;;;9.83;8.20;;;19.60;99.90;;;;;;5092493;28;20456;-53
2023/06/19 05:42:22;;;;;;;7.80;7.00;;;19.60;99.90;;;;;;5092861;28;20478;-52
2023/06/19 05:44:49;;;;;;;11.90;10.07;;;19.50;99.90;;;;;;5093283;28;20523;-52
2023/06/19 05:47:16;;;;;;;8.93;7.50;;;19.50;99.90;;;;;;5092019;28;20527;-53
2023/06/19 05:49:43;;;;;;;7.73;6.73;;;19.50;99.90;;;;;;5083520;28;20471;-56
2023/06/19 05:52:10;;;;;;;8.67;7.03;;;19.50;99.90;;;;;;5080909;28;20436;-54
2023/06/19 05:54:37;;;;;;;9.67;8.30;;;19.50;99.90;;;;;;5088234;28;20959;-53
2023/06/19 05:57:04;;;;;;;9.93;7.30;;;19.50;99.90;;;;;;5070096;28;20518;-53
2023/06/19 05:59:33;;;;;;;10.10;9.10;;;19.60;99.90;;;;;;5073001;28;20547;-54
2023/06/19 06:02:00;;;;;;;8.60;7.20;;;19.50;99.90;;;;;;5086538;28;20554;-53
2023/06/19 06:04:27;;;;;;;8.10;7.10;;;19.50;99.90;;;;;;5085182;28;20890;-53
2023/06/19 06:06:54;;;;;;;7.93;7.03;;;19.60;99.90;;;;;;5092019;28;20463;-55
2023/06/19 06:09:21;;;;;;;8.20;7.40;;;19.70;99.90;;;;;;5091725;28;20529;-53
2023/06/19 06:11:48;;;;;;;11.63;10.40;;;19.70;99.90;;;;;;5091911;28;21026;-53
2023/06/19 06:14:15;;;;;;;11.90;10.50;;;;;;;;;;5086488;28;20450;-53
2023/06/19 06:16:43;;;;;;;9.23;8.23;;;19.50;99.90;;;;;;5085842;28;20787;-54
2023/06/19 06:19:10;;;;;;;7.40;6.70;;;19.50;99.90;;;;;;5082675;28;20445;-53
2023/06/19 06:21:37;;;;;;;7.97;6.97;;;19.60;99.90;;;;;;5085010;28;20478;-53
2023/06/19 06:24:05;;;;;;;9.80;7.27;;;19.70;99.90;;;;;;5088096;28;20478;-54
2023/06/19 06:26:32;;;;;;;8.07;6.60;;;19.70;99.90;;;;;;5084612;28;20480;-53
2023/06/19 06:29:00;;;;;;;9.13;8.23;;;19.80;99.90;;;;;;5087640;28;20440;-54
2023/06/19 06:31:27;;;;;;;8.27;7.10;;;19.90;99.90;;;;;;5089969;28;20559;-52
2023/06/19 06:33:55;;;;;;;7.90;7.10;;;19.90;99.90;;;;;;5091683;28;20961;-53
2023/06/19 06:36:22;;;;;;;7.53;6.73;;;20.00;99.90;;;;;;5090522;28;20931;-53
2023/06/19 06:38:49;;;;;;;9.00;7.40;;;20.00;99.90;;;;;;5090886;28;20528;-52
2023/06/19 06:41:16;;;;;;;8.63;7.40;;;19.90;99.90;;;;;;5091507;28;20501;-55
2023/06/19 06:43:43;;;;;;;8.57;7.67;;;20.00;99.90;;;;;;5091605;28;20519;-53
2023/06/19 06:46:11;;;;;;;8.53;7.10;;;20.00;99.90;;;;;;5090063;28;20479;-57
2023/06/19 06:48:38;;;;;;;7.97;7.17;;;20.00;99.90;;;;;;5090820;28;20427;-53
2023/06/19 06:51:06;;;;;;;9.33;8.27;;;20.00;99.90;;;;;;5090745;28;20496;-54
2023/06/19 06:53:33;;;;;;;9.37;8.40;;;19.90;99.90;;;;;;5088945;28;21030;-53
2023/06/19 06:56:00;;;;;;;12.50;10.40;;;19.80;99.90;;;;;;5090725;28;20826;-53
2023/06/19 06:58:27;;;;;;;11.37;10.20;;;19.90;99.90;;;;;;5089581;28;20818;-58
2023/06/19 07:00:54;;;;;;;12.40;11.07;;;19.90;99.90;;;;;;5089457;28;20480;-53
2023/06/19 07:03:21;;;;;;;8.83;7.23;;;19.80;99.90;;;;;;5087751;28;20482;-54
2023/06/19 07:05:48;;;;;;;7.63;6.83;;;19.90;99.90;;;;;;5090542;28;20513;-53
2023/06/19 07:08:17;;;;;;;9.37;7.73;;;20.00;99.90;;;;;;5091205;28;20464;-54
2023/06/19 07:10:44;;;;;;;9.83;8.20;;;20.10;99.90;;;;;;5093325;28;21017;-54
2023/06/19 07:13:12;;;;;;;10.50;9.50;;;20.30;99.90;;;;;;5091155;28;20522;-53
2023/06/19 07:15:39;;;;;;;8.33;7.50;;;20.30;99.90;;;;;;5090573;28;20885;-52
2023/06/19 07:18:05;;;;;;;10.20;7.60;;;20.30;99.90;;;;;;5090582;28;20497;-56
2023/06/19 07:20:32;;;;;;;8.43;7.40;;;20.30;99.90;;;;;;5091251;28;20555;-53
2023/06/19 07:23:00;;;;;;;9.30;8.30;;;20.40;99.90;;;;;;5090747;28;20530;-53
2023/06/19 07:25:28;;;;;;;7.90;7.10;;;20.50;99.90;;;;;;5090442;28;20492;-52
2023/06/19 07:27:55;;;;;;;9.77;8.87;;;20.50;99.90;;;;;;5090320;28;20443;-53
2023/06/19 07:30:22;;;;;;;9.20;8.17;;;20.60;99.90;;;;;;5090565;28;20998;-53
2023/06/19 07:32:49;;;;;;;7.20;6.50;;;20.80;99.90;;;;;;5090906;28;20530;-53
2023/06/19 07:35:16;;;;;;;8.77;7.80;;;20.90;99.90;;;;;;5090548;28;20446;-53
2023/06/19 07:37:43;;;;;;;8.27;7.47;;;20.90;99.90;;;;;;5090692;28;20526;-55
2023/06/19 07:40:11;;;;;;;8.03;6.87;;;21.00;99.90;;;;;;5090554;28;21071;-53
2023/06/19 07:42:39;;;;;;;7.67;6.80;;;21.00;99.90;;;;;;5090752;28;20448;-53
2023/06/19 07:45:07;;;;;;;9.03;6.93;;;21.10;99.90;;;;;;5090142;28;20566;-53
2023/06/19 07:47:34;;;;;;;8.50;7.60;;;21.10;99.90;;;;;;5090728;28;20440;-53
2023/06/19 07:50:01;;;;;;;8.07;7.23;;;21.20;99.90;;;;;;5090428;28;20544;-52
2023/06/19 07:52:28;;;;;;;8.57;6.53;;;21.40;99.90;;;;;;5090850;28;20440;-53
2023/06/19 07:54:56;;;;;;;11.20;10.10;;;21.60;99.90;;;;;;5090861;28;20476;-53
2023/06/19 07:57:24;;;;;;;11.77;10.70;;;21.90;99.90;;;;;;5090127;28;20487;-52
2023/06/19 07:59:56;;;;;;;11.23;10.10;;;21.90;99.90;;;;;;5088708;28;20563;-52
2023/06/19 08:02:23;;;;;;;13.97;10.30;;;22.00;99.90;;;;;;5088870;28;20450;-52
2023/06/19 08:04:50;;;;;;;12.80;10.87;;;22.20;99.90;;;;;;5090401;28;21083;-53
2023/06/19 08:07:17;;;;;;;10.23;8.33;;;22.30;99.90;;;;;;5090500;28;20520;-53
2023/06/19 08:09:44;;;;;;;10.27;9.27;;;22.30;99.90;;;;;;5090165;28;20568;-53
2023/06/19 08:12:11;;;;;;;7.97;7.17;;;22.40;99.90;;;;;;5090585;28;20483;-54
2023/06/19 08:14:38;;;;;;;10.33;9.20;;;22.60;99.90;;;;;;5090144;28;20523;-53
2023/06/19 08:17:07;;;;;;;8.73;7.13;;;22.80;99.90;;;;;;5090008;28;20439;-54
2023/06/19 08:19:34;;;;;;;7.90;6.77;;;23.00;99.90;;;;;;5090250;28;20476;-53
2023/06/19 08:22:00;;;;;;;11.00;9.87;;;23.10;99.90;;;;;;5090523;28;21001;-56
2023/06/19 08:24:27;;;;;;;7.70;6.90;;;23.20;99.90;;;;;;5090551;28;20887;-53
2023/06/19 08:26:54;;;;;;;9.40;8.50;;;23.20;99.90;;;;;;5089942;28;20869;-52
2023/06/19 08:29:22;;;;;;;13.80;9.77;;;23.40;99.90;;;;;;5090115;28;20444;-55
2023/06/19 08:31:49;;;;;;;10.00;9.00;;;23.30;99.90;;;;;;5090217;28;20439;-53
2023/06/19 08:34:17;;;;;;;10.30;9.37;;;23.20;99.90;;;;;;5090750;28;20515;-53
2023/06/19 08:36:44;;;;;;;10.00;8.80;;;23.20;99.90;;;;;;5090012;28;20520;-53
2023/06/19 08:39:11;;;;;;;17.47;7.90;;;23.40;99.90;;;;;;5090394;28;21023;-52
2023/06/19 08:41:39;;;;;;;38.43;11.73;;;23.40;99.90;;;;;;5093788;28;21005;-53
2023/06/19 08:44:06;;;;;;;10.70;9.60;;;23.50;99.90;;;;;;5093588;28;20881;-56
2023/06/19 08:46:34;;;;;;;26.63;10.50;;;23.40;99.90;;;;;;5093088;28;20506;-52
2023/06/19 08:49:01;;;;;;;17.80;10.07;;;23.50;99.90;;;;;;5093407;28;20498;-55
2023/06/19 08:51:30;;;;;;;11.00;10.00;;;23.70;99.90;;;;;;5093740;28;20503;-52
2023/06/19 08:54:01;;;;;;;17.80;9.03;;;23.90;99.90;;;;;;5093692;28;20444;-53
2023/06/19 08:56:28;;;;;;;10.97;9.60;;;23.90;99.90;;;;;;5092952;28;20520;-52
2023/06/19 08:58:55;;;;;;;11.57;10.37;;;24.00;99.90;;;;;;5091316;28;20443;-54
2023/06/19 09:01:23;;;;;;;11.77;8.17;;;24.00;99.90;;;;;;5091958;28;20542;-53
2023/06/19 09:03:52;;;;;;;9.07;8.10;;;24.10;99.90;;;;;;5091561;28;20436;-53
2023/06/19 09:06:19;;;;;;;10.70;9.47;;;24.20;99.90;;;;;;5093028;28;20482;-52
2023/06/19 09:08:58;;;;;;;11.40;9.40;;;24.30;99.90;;;;;;5093125;28;20523;-52
2023/06/19 09:11:25;;;;;;;12.53;9.23;;;24.30;99.90;;;;;;5093477;28;20505;-54
2023/06/19 09:13:58;;;;;;;10.50;9.50;;;24.20;99.90;;;;;;5093297;28;20539;-53
2023/06/19 09:16:36;;;;;;;10.03;9.00;;;24.20;99.90;;;;;;5092494;28;20444;-52
2023/06/19 09:19:03;;;;;;;10.57;9.50;;;24.20;99.90;;;;;;5093096;28;20531;-52
2023/06/19 09:21:30;;;;;;;10.73;8.73;;;24.30;99.90;;;;;;5092879;28;20545;-53
2023/06/19 09:24:05;;;;;;;10.83;9.83;;;24.60;99.90;;;;;;5092918;28;20494;-52
2023/06/19 09:26:32;;;;;;;10.80;9.80;;;24.60;99.90;;;;;;5092636;28;20912;-54
2023/06/19 09:28:59;;;;;;;10.67;9.57;;;24.60;99.80;;;;;;5092436;28;20528;-52
2023/06/19 09:31:33;;;;;;;11.43;8.50;;;;;;;;;;5092704;28;20476;-55
2023/06/19 09:34:00;;;;;;;11.53;10.33;;;24.80;99.90;;;;;;5092846;28;20942;-55
2023/06/19 09:36:27;;;;;;;10.97;9.87;;;24.90;99.90;;;;;;5084931;28;20441;-55
2023/06/19 09:38:56;;;;;;;10.77;9.73;;;24.90;99.90;;;;;;5079343;28;20756;-54
2023/06/19 09:41:26;;;;;;;9.80;8.80;;;24.90;99.90;;;;;;5092481;28;20973;-53
2023/06/19 09:43:57;;;;;;;9.90;8.90;;;25.00;99.90;;;;;;5092894;28;20447;-53
2023/06/19 09:46:28;;;;;;;9.63;7.47;;;25.20;99.90;;;;;;5075469;28;20487;-52
2023/06/19 09:48:58;;;;;;;11.60;8.67;;;25.20;99.60;;;;;;5092435;28;20612;-52
2023/06/19 09:51:31;;;;;;;10.50;9.47;;;25.50;99.90;;;;;;5092273;28;20715;-53
2023/06/19 09:53:59;;;;;;;10.43;9.33;;;25.60;99.90;;;;;;5090694;28;20474;-53
2023/06/19 09:56:29;;;;;;;11.10;10.00;;;25.60;99.90;;;;;;5082852;28;20428;-54
2023/06/19 09:58:59;;;;;;;10.43;8.37;;;25.70;99.80;;;;;;5089620;28;20513;-56
2023/06/19 10:01:28;;;;;;;9.83;8.13;;;25.80;98.60;;;;;;5082030;28;20460;-53
2023/06/19 10:04:07;;;;;;;8.90;8.00;;;26.00;99.20;;;;;;5090571;28;20448;-53
2023/06/19 10:06:42;;;;;;;9.50;8.53;;;26.20;98.60;;;;;;5091923;28;20476;-54
2023/06/19 10:09:10;;;;;;;7.30;6.57;;;26.30;98.50;;;;;;5091324;28;21009;-53
2023/06/19 10:11:52;;;;;;;9.23;7.83;;;26.40;98.00;;;;;;5091497;28;20938;-53
2023/06/19 10:14:19;;;;;;;11.60;8.70;;;26.50;99.00;;;;;;5086282;28;20531;-53
2023/06/19 10:16:47;;;;;;;8.50;7.50;;;26.50;97.80;;;;;;5084908;28;21035;-52
2023/06/19 10:19:16;;;;;;;8.77;7.50;;;26.50;96.40;;;;;;5083031;28;20465;-53
2023/06/19 10:21:47;;;;;;;9.27;8.30;;;26.50;96.10;;;;;;5092384;28;20493;-55
2023/06/19 10:24:19;;;;;;;10.03;8.93;;;26.60;97.10;;;;;;5091960;28;20450;-54
2023/06/19 10:26:59;;;;;;;10.70;9.63;;;26.40;97.80;;;;;;5091063;28;20472;-52
2023/06/19 10:29:27;;;;;;;8.93;8.03;;;26.60;99.60;;;;;;5082621;28;20432;-53
2023/06/19 10:31:56;;;;;;;8.77;7.60;;;26.80;98.70;;;;;;5092200;28;20467;-53
2023/06/19 10:34:23;;;;;;;11.23;8.33;;;26.90;96.50;;;;;;5091636;28;20469;-55
2023/06/19 10:36:50;;;;;;;8.53;7.70;;;27.00;97.30;;;;;;5086660;28;20485;-53
2023/06/19 10:39:17;;;;;;;11.80;9.73;;;26.90;96.80;;;;;;5082074;28;20998;-53
2023/06/19 10:41:44;;;;;;;9.20;7.67;;;26.90;96.70;;;;;;5079862;28;20437;-53
2023/06/19 10:44:14;;;;;;;8.80;7.90;;;26.90;97.30;;;;;;5081150;28;20986;-53
2023/06/19 10:46:41;;;;;;;10.20;9.20;;;26.90;96.60;;;;;;5081543;28;20857;-53
2023/06/19 10:49:11;;;;;;;9.90;9.00;;;26.90;96.90;;;;;;5081732;28;20544;-55
2023/06/19 10:51:39;;;;;;;11.33;9.00;;;26.90;97.20;;;;;;5084624;28;20436;-53
2023/06/19 10:54:07;;;;;;;8.60;7.70;;;26.90;98.50;;;;;;5091343;28;20926;-56
2023/06/19 10:56:34;;;;;;;9.57;8.57;;;27.00;97.70;;;;;;5090604;28;20897;-53
2023/06/19 10:59:04;;;;;;;9.73;8.10;;;27.00;96.80;;;;;;5088722;28;20588;-53
2023/06/19 11:01:36;;;;;;;10.10;9.10;;;27.00;96.60;;;;;;5087149;28;21072;-55
2023/06/19 11:04:05;;;;;;;12.60;10.30;;;27.20;96.00;;;;;;5090617;28;20463;-53
2023/06/19 11:06:33;;;;;;;10.30;9.30;;;27.10;94.80;;;;;;5086143;28;20567;-53
2023/06/19 11:09:00;;;;;;;10.27;8.83;;;27.10;95.10;;;;;;5076181;28;20481;-54
2023/06/19 11:11:39;;;;;;;11.00;9.47;;;27.00;94.30;;;;;;5070158;28;21093;-54
2023/06/19 11:14:07;;;;;;;11.20;8.73;;;26.90;95.60;;;;;;5069732;28;20527;-53
2023/06/19 11:16:38;;;;;;;8.63;7.70;;;27.00;96.10;;;;;;5069988;28;20433;-55
2023/06/19 11:19:07;;;;;;;8.70;7.67;;;27.10;95.50;;;;;;5082916;28;20531;-53
2023/06/19 11:21:38;;;;;;;9.60;8.60;;;27.00;94.50;;;;;;5071742;28;20496;-56
2023/06/19 11:24:06;;;;;;;10.93;8.00;;;27.20;95.00;;;;;;5085429;28;20483;-57
2023/06/19 11:26:36;;;;;;;11.17;8.70;;;27.10;93.70;;;;;;5088922;28;20491;-54
2023/06/19 11:29:13;;;;;;;8.73;7.80;;;27.30;97.10;;;;;;5081217;28;20446;-53
2023/06/19 11:31:42;;;;;;;11.13;8.77;;;27.30;95.40;;;;;;5068541;28;20540;-54
2023/06/19 11:34:09;;;;;;;9.87;8.97;;;27.30;93.10;;;;;;5070580;28;21002;-53
2023/06/19 11:36:38;;;;;;;9.03;8.17;;;;;;;;;;5070370;28;20436;-55
2023/06/19 11:39:09;;;;;;;8.57;7.77;;;27.40;94.00;;;;;;5075427;28;20488;-53
2023/06/19 11:41:36;;;;;;;9.13;8.23;;;27.40;95.40;;;;;;5076677;28;20444;-53
2023/06/19 11:44:05;;;;;;;9.13;7.90;;;27.50;93.40;;;;;;5080142;28;20441;-54
2023/06/19 11:46:33;;;;;;;8.97;8.10;;;27.50;94.10;;;;;;5089524;28;20559;-54
2023/06/19 11:49:12;;;;;;;8.00;7.30;;;27.50;95.80;;;;;;5090304;28;20497;-53
2023/06/19 11:51:39;;;;;;;8.97;7.63;;;27.60;94.50;;;;;;5091086;28;20523;-53
2023/06/19 11:54:09;;;;;;;9.43;7.53;;;27.70;93.50;;;;;;5082698;28;20524;-53
2023/06/19 11:56:36;;;;;;;9.20;8.10;;;27.70;93.90;;;;;;5070272;28;20437;-54
2023/06/19 11:59:03;;;;;;;9.97;7.73;;;27.60;92.60;;;;;;5068168;28;20954;-53
2023/06/19 12:01:30;;;;;;;9.80;8.80;;;27.70;94.80;;;;;;5066887;28;20555;-55
2023/06/19 12:03:57;;;;;;;8.90;8.00;;;27.70;93.80;;;;;;5075745;28;20444;-53
2023/06/19 12:06:26;;;;;;;8.27;7.47;;;27.80;93.70;;;;;;5069738;28;20476;-53
2023/06/19 12:08:53;;;;;;;9.50;8.60;;;27.80;93.90;;;;;;5070393;28;20448;-53
2023/06/19 12:11:20;;;;;;;11.60;8.17;;;27.80;94.50;;;;;;5070088;28;20500;-55
2023/06/19 12:13:47;;;;;;;9.30;8.40;;;27.80;92.90;;;;;;5070003;28;20531;-53
2023/06/19 12:16:15;;;;;;;8.57;7.67;;;27.80;93.50;;;;;;5088625;28;20949;-54
2023/06/19 12:18:42;;;;;;;9.50;8.00;;;27.90;94.40;;;;;;5077079;28;20444;-53
2023/06/19 12:21:09;;;;;;;8.50;7.60;;;28.00;94.20;;;;;;5074008;28;20530;-54
2023/06/19 12:23:37;;;;;;;8.73;7.60;;;28.10;95.40;;;;;;5073941;28;20498;-53
2023/06/19 12:26:04;;;;;;;8.03;7.23;;;28.10;94.10;;;;;;5073378;28;20896;-53
2023/06/19 12:28:31;;;;;;;8.83;8.03;;;28.00;93.00;;;;;;5072994;28;20531;-55
2023/06/19 12:30:58;;;;;;;8.93;8.03;;;28.00;93.30;;;;;;5082366;28;20556;-53
2023/06/19 12:33:25;;;;;;;9.43;8.57;;;28.10;93.90;;;;;;5091588;28;20443;-53
2023/06/19 12:35:52;;;;;;;8.20;7.37;;;28.20;93.30;;;;;;5093734;28;20501;-53
2023/06/19 12:38:19;;;;;;;7.63;6.93;;;28.20;91.60;;;;;;5093480;28;20440;-53
2023/06/19 12:40:47;;;;;;;9.13;8.30;;;28.20;92.90;;;;;;5094226;28;20456;-53
2023/06/19 12:43:14;;;;;;;8.40;7.60;;;28.20;92.10;;;;;;5091647;28;21000;-53
2023/06/19 12:45:42;;;;;;;8.77;7.90;;;28.10;92.90;;;;;;5092408;28;20649;-53
2023/06/19 12:48:12;;;;;;;8.10;7.30;;;28.10;92.10;;;;;;5084709;28;21020;-53